RPA weather

Rolpa Airport
Rolpa, Rapti, Nepal

Public forecast

Using degrees Celsius for public forecast. Weather courtesy of forecast.io.

METAR (pilot weather report)

Report is more than 6 hours old.

Closest report is Gorakhpur Airport, 98.9 nm (183.1 km) SSE. Retrieved 2019/07/20 17:30 UTC (12 hours ago):

VEGK 201730Z VRB01KT 6000 FEW030 SCT250 29/29 Q1002 NOSIG

TAF (pilot weather forecast)

Forecast is more than 12 hours old.

Closest forecast is Gorakhpur Airport, 98.9 nm (183.1 km) SSE. Retrieved 2019/07/20 06:30 UTC (23 hours ago):

TAF VEGK 200330Z 2006/2018 14010KT 6000 SCT030 TEMPO 2008/2010 TSRA SCT020 FEW030CB BKN090